Krisjanis Valdemars — V7LI9 — position and weather

sailwx.info

Track history (hours):
 
Tides and Currents Weather Stations Pressure Air Temp Water Temp Dewpoint Dewpoint Depression Visibility Wind Speed Wind Dir Waves Ship Positions

Krisjanis Valdemars

Last reported at 2014-Oct-20 01:16 UTC. Time now 2014-Oct-20 04:26 UTC.
Position N 37°33' E 025°49'.

Length 183 m; draft 6.8 m.

Type: Tanker. MMSI: 538002757.

Date/timePositionNaut miles runAvg speedWind from/ knotsBaromVisibWave heightAir tempDewpointWater temp
2014-Oct-20 01:16N 37°33' E 025°49'912.3
2014-Oct-20 00:33N 37°25' E 025°54'1513.8
2014-Oct-19 23:26N 37°17' E 026°10'1413.4
2014-Oct-19 22:22N 37°10' E 026°26'3911.8
2014-Oct-19 19:06N 36°35' E 026°47'2211.8
2014-Oct-19 17:16N 36°16' E 026°60'27513.1
2014-Oct-18 20:12N 34°31' E 032°11'1113.1
2014-Oct-18 19:21N 34°27' E 032°24'1013.1
2014-Oct-18 18:33N 34°24' E 032°36'1313.0
2014-Oct-18 17:33N 34°20' E 032°51'1312.8
2014-Oct-18 16:32N 34°16' E 033°06'1612.3
2014-Oct-18 15:17N 34°11' E 033°24'1012.3
2014-Oct-18 14:30N 34°07' E 033°34'  
2014-Oct-10 17:19N 33°58' E 035°34'0 0.0
2014-Oct-10 16:28N 33°58' E 035°34'30 2.5
2014-Oct-10 04:24N 33°55' E 034°58'2312.1
2014-Oct-10 02:31N 33°56' E 034°31'  
Track history (hours):
 
Tides and Currents Weather Stations Pressure Air Temp Water Temp Dewpoint Dewpoint Depression Visibility Wind Speed Wind Dir Waves Ship Positions

Krisjanis Valdemars

Last reported at 2014-Oct-20 01:16 UTC. Time now 2014-Oct-20 04:26 UTC.
Position N 37°33' E 025°49'.

Length 183 m; draft 6.8 m.

Type: Tanker. MMSI: 538002757.

Date/timePositionNaut miles runAvg speedWind from/ knotsBaromVisibWave heightAir tempDewpointWater temp
2014-Oct-20 01:16N 37°33' E 025°49'912.3
2014-Oct-20 00:33N 37°25' E 025°54'1513.8
2014-Oct-19 23:26N 37°17' E 026°10'1413.4
2014-Oct-19 22:22N 37°10' E 026°26'3911.8
2014-Oct-19 19:06N 36°35' E 026°47'2211.8
2014-Oct-19 17:16N 36°16' E 026°60'27513.1
2014-Oct-18 20:12N 34°31' E 032°11'1113.1
2014-Oct-18 19:21N 34°27' E 032°24'1013.1
2014-Oct-18 18:33N 34°24' E 032°36'1313.0
2014-Oct-18 17:33N 34°20' E 032°51'1312.8
2014-Oct-18 16:32N 34°16' E 033°06'1612.3
2014-Oct-18 15:17N 34°11' E 033°24'1012.3
2014-Oct-18 14:30N 34°07' E 033°34'  
2014-Oct-10 17:19N 33°58' E 035°34'0 0.0
2014-Oct-10 16:28N 33°58' E 035°34'30 2.5
2014-Oct-10 04:24N 33°55' E 034°58'2312.1
2014-Oct-10 02:31N 33°56' E 034°31'  

Dump ship's entire track history